CPX967 Details

Departure: Travis Air Force Base (KSUU)
Arrival: Seattle-Tacoma International Airport (KSEA) at N/A
Route: WAPEX RBL J65 LMT HAWKZ7
Notes: EMPTY | NON-REVENUE REPOSITIONING LEG


Current Weather Information
KSUU 171658Z AUTO 24020G27KT 10SM CLR 22/13 A2979 RMK AO2 PK WND 25030/08 SLP094 T02150131 $
KSEA 171653Z 20005KT 10SM SCT013 SCT027 OVC060 18/13 A3002 RMK AO2 SLP172 T01780128